createdAt,value
2023-03-26T00:02:55.096Z,9.30
2023-03-26T00:08:00.822Z,9.28
2023-03-26T00:13:07.897Z,9.38
2023-03-26T00:18:13.798Z,9.32
2023-03-26T00:23:19.428Z,9.25
2023-03-26T00:28:26.435Z,9.25
2023-03-26T00:33:32.684Z,9.15
2023-03-26T00:38:39.593Z,9.13
2023-03-26T00:43:48.558Z,9.14
2023-03-26T00:48:54.632Z,9.04
2023-03-26T00:54:00.958Z,9.07
2023-03-26T00:59:06.941Z,9.03
2023-03-26T01:04:28.931Z,9.13
2023-03-26T01:09:37.849Z,9.02
2023-03-26T01:14:44.186Z,8.97
2023-03-26T01:20:04.865Z,8.93
2023-03-26T01:25:10.559Z,8.88
2023-03-26T01:30:28.031Z,8.86
2023-03-26T01:35:39.683Z,8.93
2023-03-26T01:40:54.320Z,8.93
2023-03-26T01:46:03.693Z,8.90
2023-03-26T01:51:11.038Z,8.91
2023-03-26T01:56:22.578Z,8.87
2023-03-26T02:01:46.502Z,8.91
2023-03-26T02:07:11.679Z,8.93
2023-03-26T02:12:18.754Z,8.97
2023-03-26T02:17:24.587Z,8.92
2023-03-26T02:22:30.276Z,8.98
2023-03-26T02:27:36.917Z,8.93
2023-03-26T02:32:44.288Z,8.88
2023-03-26T02:37:51.094Z,9.03
2023-03-26T02:42:58.851Z,9.03
2023-03-26T02:48:05.889Z,8.98
2023-03-26T02:53:31.503Z,8.94
2023-03-26T02:58:53.515Z,8.92
2023-03-26T03:04:00.819Z,8.86
2023-03-26T03:09:10.737Z,8.94
2023-03-26T03:14:17.861Z,8.91
2023-03-26T03:19:23.347Z,8.76
2023-03-26T03:24:28.840Z,8.87
2023-03-26T03:29:34.460Z,8.79
2023-03-26T03:34:51.260Z,8.75
2023-03-26T03:39:57.147Z,8.86
2023-03-26T03:45:04.691Z,8.80
2023-03-26T03:50:27.305Z,8.83
2023-03-26T03:55:34.421Z,8.83
2023-03-26T04:00:41.794Z,8.75
2023-03-26T04:05:55.663Z,8.76
2023-03-26T04:11:02.736Z,8.71
2023-03-26T04:16:26.245Z,8.84
2023-03-26T04:21:32.134Z,8.80
2023-03-26T04:26:38.237Z,8.79
2023-03-26T04:31:54.805Z,8.68
2023-03-26T04:37:03.627Z,8.70
2023-03-26T04:42:12.279Z,8.65
2023-03-26T04:47:23.630Z,8.68
2023-03-26T04:52:29.487Z,8.66
2023-03-26T04:57:44.760Z,8.70
2023-03-26T05:02:53.986Z,8.72
2023-03-26T05:08:00.890Z,8.72
2023-03-26T05:13:06.365Z,8.68
2023-03-26T05:18:13.539Z,8.71
2023-03-26T05:23:21.033Z,8.65
2023-03-26T05:28:28.419Z,8.69
2023-03-26T05:33:36.384Z,8.83
2023-03-26T05:38:46.501Z,9.42
2023-03-26T05:43:53.769Z,9.76
2023-03-26T05:49:01.056Z,9.27
2023-03-26T05:54:09.748Z,9.18
2023-03-26T05:59:35.484Z,9.16
2023-03-26T06:04:59.011Z,8.91
2023-03-26T06:10:18.528Z,8.95
2023-03-26T06:15:20.486Z,8.98
2023-03-26T06:20:27.698Z,9.09
2023-03-26T06:25:33.464Z,9.02
2023-03-26T06:30:44.039Z,9.02
2023-03-26T06:35:51.546Z,9.09
2023-03-26T06:41:08.053Z,9.24
2023-03-26T06:46:18.966Z,9.34
2023-03-26T06:51:26.512Z,9.50
2023-03-26T06:56:50.456Z,9.49
2023-03-26T07:01:57.688Z,9.63
2023-03-26T07:07:14.467Z,9.69
2023-03-26T07:12:38.068Z,9.71
2023-03-26T07:18:03.576Z,9.75
2023-03-26T07:23:14.820Z,9.72
2023-03-26T07:28:28.142Z,9.68
2023-03-26T07:33:47.530Z,9.75
2023-03-26T07:39:03.287Z,9.72
2023-03-26T07:44:28.850Z,10.00
2023-03-26T07:49:57.890Z,9.96
2023-03-26T07:55:09.245Z,9.97
2023-03-26T08:00:47.773Z,10.01
2023-03-26T08:06:08.698Z,10.21
2023-03-26T08:11:27.609Z,10.08
2023-03-26T08:16:48.133Z,10.49
2023-03-26T08:21:56.700Z,10.55
2023-03-26T08:27:05.425Z,10.93
2023-03-26T08:32:19.402Z,10.82
2023-03-26T08:37:26.656Z,10.84
2023-03-26T08:42:44.432Z,10.93
2023-03-26T08:48:09.524Z,10.66
2023-03-26T08:53:45.477Z,10.33
2023-03-26T08:59:15.188Z,10.14
2023-03-26T09:04:41.520Z,10.06
2023-03-26T09:09:50.339Z,10.02
2023-03-26T09:15:08.029Z,10.08
2023-03-26T09:20:45.921Z,10.32
2023-03-26T09:26:13.169Z,10.61
2023-03-26T09:31:27.552Z,10.79
2023-03-26T09:36:58.992Z,10.58
2023-03-26T09:42:11.687Z,10.53
2023-03-26T09:47:26.392Z,10.33
2023-03-26T09:52:43.943Z,10.37
2023-03-26T09:58:02.396Z,10.50
2023-03-26T10:03:24.726Z,10.75
2023-03-26T10:08:39.541Z,10.72
2023-03-26T10:13:50.814Z,11.08
2023-03-26T10:19:34.496Z,10.80
2023-03-26T10:25:14.864Z,10.71
2023-03-26T10:30:57.291Z,10.76
2023-03-26T10:36:27.016Z,10.75
2023-03-26T10:41:38.469Z,10.60
2023-03-26T10:47:01.873Z,10.76
2023-03-26T10:52:17.650Z,10.79
2023-03-26T10:57:50.055Z,10.87
2023-03-26T11:03:10.793Z,10.86
2023-03-26T11:08:31.208Z,10.93
2023-03-26T11:13:41.200Z,10.95
2023-03-26T11:19:10.935Z,10.99
2023-03-26T11:24:28.554Z,11.09
2023-03-26T11:29:59.363Z,11.38
2023-03-26T11:35:11.278Z,11.35
2023-03-26T11:40:38.142Z,11.42
2023-03-26T11:45:47.269Z,11.15
2023-03-26T11:50:58.647Z,11.14
2023-03-26T11:56:15.192Z,11.26
2023-03-26T12:01:30.992Z,11.50
2023-03-26T12:06:36.638Z,11.57
2023-03-26T12:11:44.585Z,11.41
2023-03-26T12:17:07.868Z,11.42
2023-03-26T12:22:31.530Z,11.48
2023-03-26T12:27:40.518Z,11.47
2023-03-26T12:32:47.155Z,11.54
2023-03-26T12:37:54.108Z,11.42
2023-03-26T12:44:46.779Z,11.56
2023-03-26T12:48:16.432Z,11.51
2023-03-26T12:53:44.790Z,11.71
2023-03-26T12:59:09.992Z,12.16
2023-03-26T13:04:27.657Z,12.10
2023-03-26T13:10:09.854Z,12.08
2023-03-26T13:15:33.220Z,11.93
2023-03-26T13:21:08.797Z,11.93
2023-03-26T13:26:34.444Z,12.31
2023-03-26T13:32:16.605Z,12.54
2023-03-26T13:37:42.002Z,12.63
2023-03-26T13:42:50.542Z,12.16
2023-03-26T13:47:59.378Z,12.08
2023-03-26T13:53:12.401Z,11.96
2023-03-26T13:58:26.376Z,12.00
2023-03-26T14:04:00.517Z,12.25
2023-03-26T14:09:18.311Z,11.93
2023-03-26T14:14:47.295Z,12.05
2023-03-26T14:20:22.994Z,12.38
2023-03-26T14:25:52.662Z,12.47
2023-03-26T14:31:13.481Z,12.61
2023-03-26T14:36:28.033Z,12.67
2023-03-26T14:41:45.803Z,12.90
2023-03-26T14:47:01.836Z,13.08
2023-03-26T14:52:19.072Z,13.06
2023-03-26T14:57:50.306Z,12.65
2023-03-26T15:03:22.626Z,13.01
2023-03-26T15:08:53.613Z,12.99
2023-03-26T15:14:26.620Z,12.98
2023-03-26T15:19:52.126Z,13.05
2023-03-26T15:25:19.653Z,12.66
2023-03-26T15:30:55.975Z,12.79
2023-03-26T15:36:09.447Z,12.72
2023-03-26T15:41:27.325Z,12.53
2023-03-26T15:46:45.165Z,12.51
2023-03-26T15:51:56.604Z,12.59
2023-03-26T15:57:11.180Z,12.35
2023-03-26T16:02:37.664Z,12.27
2023-03-26T16:07:48.936Z,11.85
2023-03-26T16:13:22.277Z,11.92
2023-03-26T16:18:31.286Z,11.59
2023-03-26T16:23:47.844Z,11.60
2023-03-26T16:28:55.811Z,11.63
2023-03-26T16:34:16.641Z,11.28
2023-03-26T16:39:27.891Z,11.29
2023-03-26T16:44:51.911Z,11.01
2023-03-26T16:50:27.751Z,10.76
2023-03-26T16:55:48.192Z,10.61
2023-03-26T17:01:02.566Z,10.51
2023-03-26T17:06:26.108Z,10.37
2023-03-26T17:11:40.514Z,10.29
2023-03-26T17:16:49.174Z,10.16
2023-03-26T17:22:17.581Z,9.97
2023-03-26T17:27:43.024Z,9.83
2023-03-26T17:33:07.347Z,9.77
2023-03-26T17:38:27.408Z,9.57
2023-03-26T17:43:52.341Z,9.32
2023-03-26T17:49:16.222Z,9.00
2023-03-26T17:54:34.061Z,8.71
2023-03-26T17:59:41.966Z,8.46
2023-03-26T18:04:50.341Z,8.45
2023-03-26T18:10:01.691Z,8.24
2023-03-26T18:15:16.232Z,8.11
2023-03-26T18:20:25.175Z,8.11
2023-03-26T18:25:34.180Z,8.03
2023-03-26T18:30:42.685Z,7.94
2023-03-26T18:35:54.120Z,7.92
2023-03-26T18:41:00.678Z,7.69
2023-03-26T18:46:07.074Z,7.63
2023-03-26T18:51:13.147Z,7.57
2023-03-26T18:56:39.709Z,7.52
2023-03-26T19:01:47.452Z,7.32
2023-03-26T19:06:56.942Z,7.26
2023-03-26T19:12:23.087Z,7.22
2023-03-26T19:17:31.580Z,7.21
2023-03-26T19:22:39.558Z,7.15
2023-03-26T19:27:45.885Z,7.09
2023-03-26T19:32:55.740Z,7.11
2023-03-26T19:38:02.853Z,7.10
2023-03-26T19:43:14.537Z,6.91
2023-03-26T19:48:45.614Z,6.90
2023-03-26T19:53:37.304Z,6.93
2023-03-26T19:58:43.606Z,6.79
2023-03-26T20:03:52.933Z,6.80
2023-03-26T20:08:59.066Z,6.74
2023-03-26T20:14:07.596Z,6.76
2023-03-26T20:19:14.575Z,6.84
2023-03-26T20:24:21.768Z,6.88
2023-03-26T20:29:29.593Z,7.00
2023-03-26T20:34:35.227Z,7.14
2023-03-26T20:39:41.669Z,7.17
2023-03-26T20:44:47.526Z,6.95
2023-03-26T20:49:53.098Z,6.96
2023-03-26T20:54:59.300Z,6.95
2023-03-26T21:00:23.455Z,6.87
2023-03-26T21:05:30.296Z,6.87
2023-03-26T21:10:36.535Z,6.79
2023-03-26T21:15:43.713Z,6.80
2023-03-26T21:20:52.195Z,6.56
2023-03-26T21:26:09.779Z,6.27
2023-03-26T21:31:20.736Z,6.10
2023-03-26T21:36:27.287Z,6.01
2023-03-26T21:41:36.565Z,5.89
2023-03-26T21:46:45.535Z,5.86
2023-03-26T21:51:51.677Z,5.81
2023-03-26T21:57:12.070Z,5.82
2023-03-26T22:02:26.515Z,5.73
2023-03-26T22:07:46.779Z,5.76
2023-03-26T22:12:53.940Z,5.73
2023-03-26T22:18:03.970Z,5.62
2023-03-26T22:23:10.936Z,5.50
2023-03-26T22:28:16.730Z,5.47
2023-03-26T22:33:22.401Z,5.38
2023-03-26T22:38:27.955Z,5.34
2023-03-26T22:43:33.456Z,5.42
2023-03-26T22:48:40.849Z,5.25
2023-03-26T22:53:46.708Z,5.26
2023-03-26T22:58:52.215Z,5.06
2023-03-26T23:03:58.123Z,5.06
2023-03-26T23:09:04.052Z,4.95
2023-03-26T23:14:10.034Z,4.76
2023-03-26T23:19:15.625Z,4.66
2023-03-26T23:24:21.246Z,4.60
2023-03-26T23:29:26.861Z,4.56
2023-03-26T23:34:32.509Z,4.56
2023-03-26T23:39:38.126Z,4.49
2023-03-26T23:44:45.338Z,4.41
2023-03-26T23:49:50.917Z,4.38
2023-03-26T23:54:59.091Z,4.39
